createdAt,value
2017-11-12T00:00:35.208Z,24.83
2017-11-12T00:03:01.227Z,22.90
2017-11-12T00:05:27.422Z,24.37
2017-11-12T00:07:53.585Z,24.50
2017-11-12T00:10:19.545Z,22.10
2017-11-12T00:12:45.751Z,24.57
2017-11-12T00:15:12.874Z,27.43
2017-11-12T00:17:40.007Z,23.73
2017-11-12T00:20:05.964Z,24.37
2017-11-12T00:22:32.786Z,25.20
2017-11-12T00:25:00.714Z,24.77
2017-11-12T00:27:26.806Z,24.93
2017-11-12T00:29:53.563Z,21.43
2017-11-12T00:32:20.201Z,25.43
2017-11-12T00:34:46.183Z,28.00
2017-11-12T00:37:12.983Z,26.53
2017-11-12T00:39:38.986Z,26.23
2017-11-12T00:42:04.968Z,23.93
2017-11-12T00:44:31.877Z,26.03
2017-11-12T00:46:57.857Z,26.67
2017-11-12T00:49:25.126Z,24.70
2017-11-12T00:51:53.944Z,27.10
2017-11-12T00:54:20.819Z,20.83
2017-11-12T00:56:48.129Z,22.13
2017-11-12T00:59:14.189Z,24.60
2017-11-12T01:01:41.555Z,23.60
2017-11-12T01:04:07.549Z,30.00
2017-11-12T01:06:34.315Z,25.80
2017-11-12T01:09:01.289Z,24.77
2017-11-12T01:11:27.299Z,23.90
2017-11-12T01:13:56.747Z,20.97
2017-11-12T01:16:24.803Z,22.43
2017-11-12T01:18:50.811Z,29.40
2017-11-12T01:21:17.979Z,24.93
2017-11-12T01:23:44.914Z,24.87
2017-11-12T01:26:10.929Z,23.70
2017-11-12T01:28:37.917Z,18.60
2017-11-12T01:31:04.012Z,21.73
2017-11-12T01:33:30.021Z,23.60
2017-11-12T01:35:55.968Z,24.03
2017-11-12T01:38:22.820Z,21.37
2017-11-12T01:40:48.802Z,19.33
2017-11-12T01:43:14.821Z,24.50
2017-11-12T01:45:40.796Z,22.37
2017-11-12T01:48:07.700Z,22.10
2017-11-12T01:50:33.695Z,22.63
2017-11-12T01:53:00.455Z,22.80
2017-11-12T01:55:26.496Z,22.63
2017-11-12T01:57:52.456Z,24.07
2017-11-12T02:00:18.847Z,21.77
2017-11-12T02:02:44.857Z,20.00
2017-11-12T02:05:10.879Z,18.30
2017-11-12T02:07:36.858Z,21.90
2017-11-12T02:10:03.641Z,21.13
2017-11-12T02:12:29.668Z,23.67
2017-11-12T02:14:55.636Z,25.47
2017-11-12T02:17:21.604Z,27.87
2017-11-12T02:19:48.662Z,21.33
2017-11-12T02:22:14.671Z,25.80
2017-11-12T02:24:40.631Z,22.63
2017-11-12T02:27:07.703Z,22.50
2017-11-12T02:29:34.240Z,23.00
2017-11-12T02:32:00.221Z,23.63
2017-11-12T02:34:27.387Z,24.37
2017-11-12T02:36:53.443Z,26.60
2017-11-12T02:39:20.153Z,20.57
2017-11-12T02:41:46.381Z,20.90
2017-11-12T02:44:13.297Z,18.80
2017-11-12T02:46:39.333Z,19.60
2017-11-12T02:49:05.999Z,21.07
2017-11-12T02:51:34.964Z,25.60
2017-11-12T02:54:01.711Z,23.00
2017-11-12T02:56:27.735Z,22.90
2017-11-12T02:58:53.750Z,25.10
2017-11-12T03:01:19.765Z,22.80
2017-11-12T03:03:45.751Z,27.33
2017-11-12T03:06:11.723Z,22.00
2017-11-12T03:08:37.678Z,19.73
2017-11-12T03:11:03.664Z,23.30
2017-11-12T03:13:29.617Z,21.20
2017-11-12T03:15:55.646Z,25.90
2017-11-12T03:18:22.074Z,22.60
2017-11-12T03:20:48.848Z,25.63
2017-11-12T03:23:15.570Z,28.03
2017-11-12T03:25:42.248Z,17.30
2017-11-12T03:28:09.769Z,20.87
2017-11-12T03:30:35.804Z,16.80
2017-11-12T03:33:01.817Z,24.57
2017-11-12T03:35:27.926Z,20.50
2017-11-12T03:37:54.784Z,21.70
2017-11-12T03:40:20.807Z,21.20
2017-11-12T03:42:46.807Z,21.40
2017-11-12T03:45:13.581Z,23.23
2017-11-12T03:47:39.564Z,25.20
2017-11-12T03:50:06.514Z,24.70
2017-11-12T03:52:32.565Z,23.00
2017-11-12T03:55:00.125Z,24.23
2017-11-12T03:57:26.150Z,23.13
2017-11-12T03:59:52.148Z,23.47
2017-11-12T04:02:18.210Z,23.97
2017-11-12T04:04:44.234Z,22.73
2017-11-12T04:07:10.246Z,26.43
2017-11-12T04:09:36.424Z,29.60
2017-11-12T04:12:02.510Z,25.17
2017-11-12T04:14:28.525Z,26.90
2017-11-12T04:16:54.482Z,29.20
2017-11-12T04:19:20.548Z,28.30
2017-11-12T04:21:46.587Z,23.20
2017-11-12T04:24:12.587Z,25.10
2017-11-12T04:26:38.591Z,26.93
2017-11-12T04:29:05.384Z,27.17
2017-11-12T04:31:31.398Z,30.43
2017-11-12T04:33:57.497Z,30.70
2017-11-12T04:36:23.640Z,26.77
2017-11-12T04:38:49.627Z,24.10
2017-11-12T04:41:15.749Z,28.10
2017-11-12T04:43:41.806Z,26.93
2017-11-12T04:46:08.875Z,27.80
2017-11-12T04:48:35.648Z,25.37
2017-11-12T04:51:02.724Z,24.57
2017-11-12T04:53:28.700Z,25.53
2017-11-12T04:55:54.712Z,26.37
2017-11-12T04:58:21.547Z,31.33
2017-11-12T05:00:47.545Z,25.43
2017-11-12T05:03:14.289Z,21.80
2017-11-12T05:05:40.330Z,28.77
2017-11-12T05:08:06.395Z,24.80
2017-11-12T05:10:33.170Z,26.07
2017-11-12T05:12:59.565Z,23.50
2017-11-12T05:15:25.572Z,25.27
2017-11-12T05:17:51.540Z,26.50
2017-11-12T05:20:17.535Z,23.80
2017-11-12T05:22:43.498Z,23.40
2017-11-12T05:25:09.458Z,24.00
2017-11-12T05:27:36.274Z,27.97
2017-11-12T05:30:02.255Z,26.03
2017-11-12T05:32:28.212Z,25.80
2017-11-12T05:34:54.933Z,26.53
2017-11-12T05:37:20.988Z,26.07
2017-11-12T05:39:46.956Z,26.73
2017-11-12T05:42:13.030Z,25.63
2017-11-12T05:44:38.986Z,28.20
2017-11-12T05:47:05.100Z,28.30
2017-11-12T05:49:31.067Z,25.90
2017-11-12T05:51:57.059Z,26.13
2017-11-12T05:54:23.565Z,25.07
2017-11-12T05:56:50.138Z,23.20
2017-11-12T05:59:16.880Z,25.67
2017-11-12T06:01:43.001Z,24.63
2017-11-12T06:04:10.112Z,22.43
2017-11-12T06:06:36.056Z,24.90
2017-11-12T06:09:02.052Z,27.80
2017-11-12T06:11:27.999Z,23.97
2017-11-12T06:13:54.000Z,22.73
2017-11-12T06:16:20.024Z,23.37
2017-11-12T06:18:46.048Z,23.40
2017-11-12T06:21:12.248Z,64.17
2017-11-12T06:23:38.253Z,26.63
2017-11-12T06:26:04.661Z,30.23
2017-11-12T06:28:31.432Z,44.57
2017-11-12T06:30:57.501Z,26.80
2017-11-12T06:33:23.446Z,25.47
2017-11-12T06:35:50.864Z,23.00
2017-11-12T06:38:16.826Z,26.03
2017-11-12T06:40:43.002Z,24.73
2017-11-12T06:43:08.982Z,26.30
2017-11-12T06:45:34.930Z,22.47
2017-11-12T06:48:01.850Z,27.13
2017-11-12T06:50:27.867Z,25.37
2017-11-12T06:52:53.875Z,22.97
2017-11-12T06:55:20.725Z,25.30
2017-11-12T06:57:46.732Z,28.50
2017-11-12T07:00:12.690Z,24.60
2017-11-12T07:02:39.600Z,26.23
2017-11-12T07:05:05.593Z,25.80
2017-11-12T07:07:31.776Z,24.57
2017-11-12T07:09:57.814Z,28.57
2017-11-12T07:12:25.795Z,23.17
2017-11-12T07:14:51.817Z,34.10
2017-11-12T07:17:18.570Z,42.77
2017-11-12T07:19:45.606Z,33.87
2017-11-12T07:22:11.601Z,26.30
2017-11-12T07:24:38.544Z,27.17
2017-11-12T07:27:06.314Z,25.30
2017-11-12T07:29:32.353Z,27.60
2017-11-12T07:31:58.362Z,32.03
2017-11-12T07:34:25.103Z,28.73
2017-11-12T07:36:51.115Z,24.77
2017-11-12T07:39:18.973Z,26.90
2017-11-12T07:41:46.052Z,28.60
2017-11-12T07:44:12.001Z,23.67
2017-11-12T07:46:38.139Z,28.40
2017-11-12T07:49:04.967Z,29.13
2017-11-12T07:51:30.945Z,26.70
2017-11-12T07:54:03.032Z,26.60
2017-11-12T07:56:29.164Z,28.57
2017-11-12T07:58:56.317Z,25.40
2017-11-12T08:01:22.377Z,26.30
2017-11-12T08:03:49.051Z,26.27
2017-11-12T08:06:15.056Z,26.90
2017-11-12T08:08:43.381Z,34.27
2017-11-12T08:11:09.409Z,30.67
2017-11-12T08:13:35.509Z,29.20
2017-11-12T08:16:01.541Z,29.60
2017-11-12T08:18:28.092Z,29.63
2017-11-12T08:20:54.085Z,34.40
2017-11-12T08:23:20.950Z,30.57
2017-11-12T08:25:46.967Z,29.50
2017-11-12T08:28:13.004Z,30.37
2017-11-12T08:30:39.941Z,38.90
2017-11-12T08:33:06.794Z,33.63
2017-11-12T08:35:33.875Z,38.10
2017-11-12T08:38:00.440Z,30.40
2017-11-12T08:40:26.557Z,32.40
2017-11-12T08:42:52.561Z,33.83
2017-11-12T08:45:18.632Z,33.00
2017-11-12T08:47:44.813Z,30.90
2017-11-12T08:50:11.025Z,34.67
2017-11-12T08:52:37.188Z,32.03
2017-11-12T08:55:03.534Z,38.20
2017-11-12T08:57:30.677Z,37.23
2017-11-12T08:59:57.500Z,36.87
2017-11-12T09:02:23.447Z,38.57
2017-11-12T09:04:49.410Z,32.63
2017-11-12T09:07:16.118Z,39.80
2017-11-12T09:09:42.106Z,34.50
2017-11-12T09:12:10.006Z,32.00
2017-11-12T09:14:36.284Z,36.40
2017-11-12T09:17:03.780Z,36.30
2017-11-12T09:19:29.879Z,48.37
2017-11-12T09:21:56.143Z,46.33
2017-11-12T09:24:23.265Z,60.03
2017-11-12T09:26:49.297Z,43.27
2017-11-12T09:29:15.332Z,37.90
2017-11-12T09:31:41.312Z,37.30
2017-11-12T09:34:08.031Z,34.57
2017-11-12T09:36:35.226Z,32.37
2017-11-12T09:39:01.969Z,37.83
2017-11-12T09:41:28.054Z,31.40
2017-11-12T09:43:54.034Z,30.43
2017-11-12T09:46:20.281Z,31.10
2017-11-12T09:48:47.379Z,31.23
2017-11-12T09:51:15.888Z,32.33
2017-11-12T09:53:42.846Z,34.60
2017-11-12T09:56:10.382Z,36.37
2017-11-12T09:58:36.575Z,30.37
2017-11-12T10:01:03.446Z,32.63
2017-11-12T10:03:31.721Z,30.17
2017-11-12T10:05:58.541Z,27.13
2017-11-12T10:08:24.531Z,30.77
2017-11-12T10:10:52.067Z,26.23
2017-11-12T10:13:19.816Z,26.77
2017-11-12T10:15:45.865Z,26.87
2017-11-12T10:18:11.972Z,23.20
2017-11-12T10:20:38.844Z,30.67
2017-11-12T10:23:05.518Z,31.27
2017-11-12T10:25:33.359Z,28.80
2017-11-12T10:28:02.430Z,29.93
2017-11-12T10:30:28.483Z,29.80
2017-11-12T10:32:54.462Z,27.70
2017-11-12T10:35:20.852Z,28.50
2017-11-12T10:37:46.969Z,24.60
2017-11-12T10:40:12.935Z,26.53
2017-11-12T10:42:39.193Z,29.60
2017-11-12T10:45:06.056Z,25.60
2017-11-12T10:47:33.435Z,25.17
2017-11-12T10:49:59.389Z,30.67
2017-11-12T10:52:26.159Z,28.73
2017-11-12T10:54:52.225Z,32.27
2017-11-12T10:57:18.430Z,24.80
2017-11-12T10:59:44.429Z,28.93
2017-11-12T11:02:11.555Z,25.10
2017-11-12T11:04:38.650Z,22.07
2017-11-12T11:07:05.028Z,28.67
2017-11-12T11:09:32.135Z,24.10
2017-11-12T11:11:59.709Z,25.53
2017-11-12T11:14:25.699Z,26.40
2017-11-12T11:16:52.644Z,22.57
2017-11-12T11:19:19.349Z,21.57
2017-11-12T11:21:46.429Z,24.50
2017-11-12T11:24:12.534Z,22.60
2017-11-12T11:26:38.787Z,22.63
2017-11-12T11:29:05.119Z,25.67
2017-11-12T11:31:31.802Z,18.80
2017-11-12T11:33:57.764Z,22.83
2017-11-12T11:36:24.990Z,20.63
2017-11-12T11:38:52.004Z,15.30
2017-11-12T11:41:18.417Z,14.93
2017-11-12T11:43:44.425Z,15.10
2017-11-12T11:46:10.481Z,14.60
2017-11-12T11:48:37.720Z,16.90
2017-11-12T11:51:05.178Z,12.07
2017-11-12T11:53:31.133Z,13.70
2017-11-12T11:55:57.244Z,12.83
2017-11-12T11:58:23.248Z,15.20
2017-11-12T12:00:49.230Z,13.50
2017-11-12T12:03:15.204Z,10.53
2017-11-12T12:05:41.182Z,12.43
2017-11-12T12:08:07.116Z,12.37
2017-11-12T12:10:33.135Z,9.67
2017-11-12T12:12:59.049Z,10.13
2017-11-12T12:15:25.099Z,11.27
2017-11-12T12:17:51.095Z,12.80
2017-11-12T12:20:17.783Z,11.27
2017-11-12T12:22:43.777Z,10.13
2017-11-12T12:25:10.029Z,39.63
2017-11-12T12:27:36.065Z,23.83
2017-11-12T12:30:02.040Z,24.70
2017-11-12T12:32:28.101Z,10.10
2017-11-12T12:34:55.529Z,11.33
2017-11-12T12:37:23.076Z,16.10
2017-11-12T12:39:49.044Z,8.00
2017-11-12T12:42:15.027Z,7.20
2017-11-12T12:44:41.051Z,7.33
2017-11-12T12:47:07.065Z,7.67
2017-11-12T12:49:33.086Z,8.20
2017-11-12T12:51:59.037Z,9.10
2017-11-12T12:54:25.217Z,7.53
2017-11-12T12:56:52.093Z,8.30
2017-11-12T12:59:18.033Z,5.90
2017-11-12T13:01:43.974Z,7.37
2017-11-12T13:04:09.943Z,7.20
2017-11-12T13:06:36.125Z,8.50
2017-11-12T13:09:03.013Z,8.00
2017-11-12T13:11:29.048Z,7.63
2017-11-12T13:13:55.110Z,7.43
2017-11-12T13:16:21.134Z,7.53
2017-11-12T13:18:47.198Z,8.30
2017-11-12T13:21:13.263Z,8.80
2017-11-12T13:23:39.968Z,5.93
2017-11-12T13:26:06.004Z,6.87
2017-11-12T13:28:32.145Z,5.63
2017-11-12T13:30:58.197Z,7.40
2017-11-12T13:33:24.426Z,5.80
2017-11-12T13:35:50.456Z,5.20
2017-11-12T13:38:17.747Z,5.03
2017-11-12T13:40:45.668Z,6.73
2017-11-12T13:43:17.405Z,5.73
2017-11-12T13:45:43.496Z,5.93
2017-11-12T13:48:10.488Z,4.90
2017-11-12T13:50:37.053Z,4.97
2017-11-12T13:53:03.157Z,6.00
2017-11-12T13:55:30.001Z,25.83
2017-11-12T13:57:56.801Z,24.00
2017-11-12T14:00:23.480Z,22.30
2017-11-12T14:02:50.218Z,25.57
2017-11-12T14:05:16.649Z,6.43
2017-11-12T14:07:42.720Z,6.50
2017-11-12T14:10:09.543Z,5.80
2017-11-12T14:12:35.536Z,6.17
2017-11-12T14:15:02.610Z,5.93
2017-11-12T14:17:28.688Z,6.53
2017-11-12T14:19:54.749Z,6.20
2017-11-12T14:22:21.581Z,6.60
2017-11-12T14:24:48.345Z,7.53
2017-11-12T14:27:14.955Z,6.20
2017-11-12T14:29:40.958Z,7.93
2017-11-12T14:32:06.930Z,7.13
2017-11-12T14:34:33.861Z,7.50
2017-11-12T14:36:59.992Z,9.53
2017-11-12T14:39:26.318Z,9.10
2017-11-12T14:41:52.453Z,7.73
2017-11-12T14:44:19.726Z,6.50
2017-11-12T14:46:46.997Z,7.00
2017-11-12T14:49:13.070Z,7.90
2017-11-12T14:51:41.745Z,5.53
2017-11-12T14:54:07.744Z,5.63
2017-11-12T14:56:33.821Z,5.50
2017-11-12T14:59:00.684Z,5.73
2017-11-12T15:01:28.751Z,5.90
2017-11-12T15:03:54.731Z,6.20
2017-11-12T15:06:22.593Z,6.37
2017-11-12T15:08:48.574Z,7.80
2017-11-12T15:11:14.912Z,5.00
2017-11-12T15:13:40.868Z,5.07
2017-11-12T15:16:06.838Z,7.30
2017-11-12T15:18:33.637Z,5.87
2017-11-12T15:21:00.534Z,5.47
2017-11-12T15:23:27.366Z,9.53
2017-11-12T15:25:53.368Z,6.77
2017-11-12T15:28:19.389Z,6.93
2017-11-12T15:30:46.426Z,7.10
2017-11-12T15:33:14.485Z,6.23
2017-11-12T15:35:41.566Z,6.80
2017-11-12T15:38:07.592Z,6.87
2017-11-12T15:40:33.684Z,6.53
2017-11-12T15:42:59.722Z,7.30
2017-11-12T15:45:27.502Z,8.30
2017-11-12T15:47:53.510Z,7.50
2017-11-12T15:50:19.777Z,11.53
2017-11-12T15:52:46.456Z,7.27
2017-11-12T15:55:12.510Z,7.90
2017-11-12T15:57:38.532Z,9.13
2017-11-12T16:00:04.982Z,8.73
2017-11-12T16:02:31.236Z,9.40
2017-11-12T16:04:58.555Z,11.70
2017-11-12T16:07:25.142Z,7.97
2017-11-12T16:09:51.318Z,9.47
2017-11-12T16:12:17.900Z,7.80
2017-11-12T16:14:46.177Z,6.77
2017-11-12T16:17:12.843Z,8.30
2017-11-12T16:19:38.914Z,7.10
2017-11-12T16:22:05.135Z,6.53
2017-11-12T16:24:33.861Z,6.20
2017-11-12T16:27:03.159Z,7.90
2017-11-12T16:29:31.356Z,5.83
2017-11-12T16:31:58.293Z,6.13
2017-11-12T16:34:24.365Z,6.10
2017-11-12T16:36:53.076Z,7.43
2017-11-12T16:39:19.046Z,8.00
2017-11-12T16:41:45.744Z,11.70
2017-11-12T16:44:11.884Z,8.50
2017-11-12T16:46:38.855Z,8.27
2017-11-12T16:49:06.558Z,8.00
2017-11-12T16:51:32.665Z,9.77
2017-11-12T16:53:58.657Z,9.30
2017-11-12T16:56:24.881Z,9.63
2017-11-12T16:58:51.823Z,9.50
2017-11-12T17:01:18.144Z,10.10
2017-11-12T17:03:45.150Z,10.63
2017-11-12T17:06:11.200Z,9.43
2017-11-12T17:08:37.246Z,9.60
2017-11-12T17:11:03.373Z,9.40
2017-11-12T17:13:29.936Z,10.57
2017-11-12T17:15:55.987Z,12.63
2017-11-12T17:18:22.241Z,13.33
2017-11-12T17:20:49.447Z,12.10
2017-11-12T17:23:17.807Z,10.93
2017-11-12T17:25:43.919Z,13.13
2017-11-12T17:28:11.355Z,9.97
2017-11-12T17:30:37.855Z,13.80
2017-11-12T17:33:05.121Z,9.07
2017-11-12T17:35:31.247Z,11.93
2017-11-12T17:37:58.113Z,10.37
2017-11-12T17:40:25.790Z,8.47
2017-11-12T17:42:51.856Z,7.47
2017-11-12T17:45:17.922Z,11.17
2017-11-12T17:47:43.923Z,9.67
2017-11-12T17:50:10.061Z,7.27
2017-11-12T17:52:36.338Z,7.63
2017-11-12T17:55:02.361Z,8.27
2017-11-12T17:57:28.285Z,8.53
2017-11-12T17:59:55.024Z,10.10
2017-11-12T18:02:20.950Z,6.93
2017-11-12T18:04:47.684Z,7.73
2017-11-12T18:07:14.388Z,7.10
2017-11-12T18:09:40.375Z,5.07
2017-11-12T18:12:06.555Z,6.60
2017-11-12T18:14:32.641Z,9.13
2017-11-12T18:16:58.627Z,9.40
2017-11-12T18:19:24.731Z,5.50
2017-11-12T18:21:51.043Z,7.73
2017-11-12T18:24:18.282Z,14.40
2017-11-12T18:26:44.405Z,6.37
2017-11-12T18:29:10.397Z,6.00
2017-11-12T18:31:37.197Z,5.60
2017-11-12T18:34:03.970Z,5.53
2017-11-12T18:36:30.550Z,7.50
2017-11-12T18:38:56.741Z,5.47
2017-11-12T18:41:22.772Z,5.43
2017-11-12T18:43:49.581Z,7.47
2017-11-12T18:46:15.691Z,6.80
2017-11-12T18:48:43.398Z,8.73
2017-11-12T18:51:16.237Z,8.73
2017-11-12T18:53:43.066Z,9.80
2017-11-12T18:56:19.991Z,9.20
2017-11-12T18:59:01.887Z,14.30
2017-11-12T19:01:43.484Z,16.80
2017-11-12T19:04:15.773Z,15.33
2017-11-12T19:06:56.722Z,13.60
2017-11-12T19:09:23.791Z,12.80
2017-11-12T19:11:49.872Z,16.20
2017-11-12T19:14:16.648Z,15.67
2017-11-12T19:16:43.673Z,12.03
2017-11-12T19:19:24.735Z,16.33
2017-11-12T19:21:52.412Z,14.80
2017-11-12T19:24:35.325Z,16.33
2017-11-12T19:27:13.675Z,14.70
2017-11-12T19:29:43.557Z,15.57
2017-11-12T19:32:10.024Z,15.03
2017-11-12T19:34:36.164Z,14.10
2017-11-12T19:37:02.244Z,15.33
2017-11-12T19:39:28.510Z,17.37
2017-11-12T19:41:54.812Z,18.27
2017-11-12T19:44:20.974Z,15.30
2017-11-12T19:46:46.965Z,18.43
2017-11-12T19:49:13.010Z,12.30
2017-11-12T19:51:39.018Z,16.10
2017-11-12T19:54:05.142Z,16.27
2017-11-12T19:56:31.972Z,14.10
2017-11-12T19:58:58.006Z,14.70
2017-11-12T20:01:24.866Z,15.47
2017-11-12T20:03:50.991Z,16.50
2017-11-12T20:06:17.331Z,15.73
2017-11-12T20:08:44.600Z,14.20
2017-11-12T20:11:10.586Z,13.03
2017-11-12T20:13:36.646Z,13.53
2017-11-12T20:16:02.668Z,16.23
2017-11-12T20:18:29.712Z,13.50
2017-11-12T20:20:55.837Z,11.30
2017-11-12T20:23:23.445Z,10.23
2017-11-12T20:25:51.118Z,13.07
2017-11-12T20:28:19.129Z,11.57
2017-11-12T20:30:47.566Z,13.17
2017-11-12T20:33:13.607Z,12.23
2017-11-12T20:35:40.785Z,16.43
2017-11-12T20:38:07.620Z,14.20
2017-11-12T20:40:35.100Z,14.03
2017-11-12T20:43:01.127Z,17.20
2017-11-12T20:45:28.174Z,12.23
2017-11-12T20:47:54.289Z,12.60
2017-11-12T20:50:20.988Z,13.83
2017-11-12T20:52:50.639Z,13.77
2017-11-12T20:55:16.717Z,12.07
2017-11-12T20:57:42.662Z,10.37
2017-11-12T21:00:09.433Z,12.20
2017-11-12T21:02:36.141Z,16.03
2017-11-12T21:05:02.407Z,14.90
2017-11-12T21:07:28.389Z,14.23
2017-11-12T21:09:54.423Z,20.23
2017-11-12T21:12:20.641Z,11.33
2017-11-12T21:14:46.619Z,11.93
2017-11-12T21:17:13.373Z,13.03
2017-11-12T21:19:43.355Z,14.47
2017-11-12T21:22:11.299Z,13.67
2017-11-12T21:24:38.249Z,18.50
2017-11-12T21:27:06.331Z,13.80
2017-11-12T21:29:33.497Z,12.70
2017-11-12T21:32:03.376Z,12.93
2017-11-12T21:34:35.425Z,11.90
2017-11-12T21:37:01.493Z,11.53
2017-11-12T21:39:27.665Z,12.53
2017-11-12T21:41:54.472Z,11.93
2017-11-12T21:44:20.472Z,14.30
2017-11-12T21:46:46.594Z,10.70
2017-11-12T21:49:12.625Z,10.60
2017-11-12T21:51:38.723Z,12.30
2017-11-12T21:54:04.764Z,11.17
2017-11-12T21:56:31.471Z,12.40
2017-11-12T21:58:58.197Z,11.00
2017-11-12T22:01:24.541Z,10.47
2017-11-12T22:03:50.930Z,11.83
2017-11-12T22:06:17.450Z,13.57
2017-11-12T22:08:43.578Z,14.20
2017-11-12T22:11:09.618Z,13.97
2017-11-12T22:13:35.869Z,16.37
2017-11-12T22:16:04.244Z,12.40
2017-11-12T22:18:32.409Z,14.70
2017-11-12T22:21:01.034Z,13.43
2017-11-12T22:23:28.546Z,11.90
2017-11-12T22:25:56.398Z,14.10
2017-11-12T22:28:22.451Z,13.27
2017-11-12T22:30:48.770Z,12.53
2017-11-12T22:33:17.568Z,12.83
2017-11-12T22:35:45.362Z,11.90
2017-11-12T22:38:12.987Z,12.90
2017-11-12T22:40:39.973Z,14.10
2017-11-12T22:43:07.829Z,14.60
2017-11-12T22:45:36.307Z,14.47
2017-11-12T22:48:04.610Z,13.67
2017-11-12T22:50:33.295Z,12.40
2017-11-12T22:53:02.130Z,13.00
2017-11-12T22:55:31.625Z,13.73
2017-11-12T22:58:01.333Z,12.30
2017-11-12T23:00:29.876Z,14.33
2017-11-12T23:02:58.394Z,13.13
2017-11-12T23:05:29.476Z,15.87
2017-11-12T23:07:56.393Z,14.40
2017-11-12T23:10:24.673Z,13.90
2017-11-12T23:12:51.527Z,15.53
2017-11-12T23:15:18.804Z,14.23
2017-11-12T23:17:45.760Z,16.33
2017-11-12T23:20:12.766Z,16.30
2017-11-12T23:22:39.601Z,14.60
2017-11-12T23:25:09.044Z,13.60
2017-11-12T23:27:37.457Z,15.00
2017-11-12T23:30:05.558Z,18.70
2017-11-12T23:32:32.197Z,16.33
2017-11-12T23:34:58.316Z,14.50
2017-11-12T23:37:24.487Z,13.80
2017-11-12T23:39:51.225Z,17.53
2017-11-12T23:42:17.253Z,14.13
2017-11-12T23:44:43.325Z,16.00
2017-11-12T23:47:09.311Z,14.00
2017-11-12T23:49:35.493Z,14.13
2017-11-12T23:52:03.754Z,14.50
2017-11-12T23:54:29.771Z,17.67
2017-11-12T23:56:55.833Z,18.63
2017-11-12T23:59:22.915Z,13.43
